createdAt,value
2023-04-21T00:00:53.828Z,84.58
2023-04-21T00:03:22.186Z,84.94
2023-04-21T00:05:49.635Z,85.50
2023-04-21T00:08:16.658Z,86.86
2023-04-21T00:10:43.912Z,87.22
2023-04-21T00:13:10.788Z,87.32
2023-04-21T00:15:37.249Z,87.10
2023-04-21T00:18:03.935Z,87.03
2023-04-21T00:20:31.466Z,86.55
2023-04-21T00:22:59.034Z,85.20
2023-04-21T00:25:25.928Z,84.79
2023-04-21T00:27:52.281Z,84.53
2023-04-21T00:30:18.649Z,84.09
2023-04-21T00:32:45.167Z,83.87
2023-04-21T00:35:11.607Z,84.31
2023-04-21T00:37:38.047Z,84.30
2023-04-21T00:40:05.147Z,83.92
2023-04-21T00:42:31.656Z,83.45
2023-04-21T00:44:57.978Z,82.94
2023-04-21T00:47:25.369Z,82.85
2023-04-21T00:49:52.150Z,83.77
2023-04-21T00:52:19.269Z,83.55
2023-04-21T00:54:46.311Z,83.90
2023-04-21T00:57:13.196Z,83.43
2023-04-21T00:59:39.593Z,83.58
2023-04-21T01:02:06.102Z,83.27
2023-04-21T01:04:37.009Z,82.62
2023-04-21T01:07:05.024Z,82.69
2023-04-21T01:09:32.034Z,82.86
2023-04-21T01:12:05.677Z,82.71
2023-04-21T01:14:32.163Z,82.72
2023-04-21T01:16:59.161Z,82.34
2023-04-21T01:19:28.577Z,83.08
2023-04-21T01:21:57.523Z,81.75
2023-04-21T01:24:27.395Z,81.75
2023-04-21T01:26:53.816Z,82.07
2023-04-21T01:29:20.391Z,81.70
2023-04-21T01:31:48.062Z,81.78
2023-04-21T01:34:14.565Z,81.84
2023-04-21T01:36:41.212Z,82.26
2023-04-21T01:39:07.598Z,81.62
2023-04-21T01:41:34.032Z,82.18
2023-04-21T01:44:01.040Z,81.93
2023-04-21T01:46:27.867Z,81.54
2023-04-21T01:48:54.354Z,81.57
2023-04-21T01:51:20.723Z,82.37
2023-04-21T01:53:47.055Z,82.00
2023-04-21T01:56:14.980Z,81.84
2023-04-21T01:58:41.394Z,81.86
2023-04-21T02:01:07.786Z,82.19
2023-04-21T02:03:34.421Z,82.04
2023-04-21T02:06:01.022Z,82.29
2023-04-21T02:08:27.351Z,82.55
2023-04-21T02:10:53.670Z,82.28
2023-04-21T02:13:20.098Z,82.81
2023-04-21T02:15:46.478Z,83.49
2023-04-21T02:18:13.305Z,83.09
2023-04-21T02:20:39.846Z,83.30
2023-04-21T02:23:06.241Z,83.31
2023-04-21T02:25:32.842Z,83.37
2023-04-21T02:27:59.263Z,83.38
2023-04-21T02:30:26.043Z,83.28
2023-04-21T02:32:52.479Z,83.04
2023-04-21T02:35:18.907Z,82.67
2023-04-21T02:37:45.329Z,82.95
2023-04-21T02:40:12.393Z,82.79
2023-04-21T02:42:38.764Z,82.59
2023-04-21T02:45:05.763Z,81.75
2023-04-21T02:47:32.211Z,82.26
2023-04-21T02:49:58.572Z,82.27
2023-04-21T02:52:24.902Z,82.44
2023-04-21T02:54:51.246Z,81.83
2023-04-21T02:57:17.569Z,82.20
2023-04-21T02:59:43.984Z,82.09
2023-04-21T03:02:10.420Z,82.23
2023-04-21T03:04:37.803Z,82.64
2023-04-21T03:07:04.269Z,82.82
2023-04-21T03:09:30.718Z,82.99
2023-04-21T03:11:57.126Z,82.85
2023-04-21T03:14:23.494Z,83.07
2023-04-21T03:16:49.968Z,83.30
2023-04-21T03:19:16.542Z,83.14
2023-04-21T03:21:42.972Z,82.94
2023-04-21T03:24:09.360Z,83.33
2023-04-21T03:26:35.755Z,83.64
2023-04-21T03:29:02.159Z,83.31
2023-04-21T03:31:28.742Z,83.25
2023-04-21T03:33:55.248Z,83.41
2023-04-21T03:36:21.595Z,83.13
2023-04-21T03:38:48.138Z,84.10
2023-04-21T03:41:14.558Z,83.63
2023-04-21T03:43:40.977Z,83.70
2023-04-21T03:46:07.362Z,83.66
2023-04-21T03:48:33.972Z,84.07
2023-04-21T03:51:00.407Z,83.78
2023-04-21T03:53:26.783Z,83.33
2023-04-21T03:55:53.198Z,83.37
2023-04-21T03:58:19.548Z,83.06
2023-04-21T04:00:45.931Z,82.97
2023-04-21T04:03:12.423Z,82.71
2023-04-21T04:05:38.973Z,83.17
2023-04-21T04:08:06.463Z,83.14
2023-04-21T04:10:32.854Z,82.73
2023-04-21T04:12:59.214Z,83.03
2023-04-21T04:15:25.773Z,82.47
2023-04-21T04:17:52.183Z,82.99
2023-04-21T04:20:18.590Z,83.48
2023-04-21T04:22:46.612Z,82.86
2023-04-21T04:25:14.953Z,82.61
2023-04-21T04:27:41.396Z,82.42
2023-04-21T04:30:08.115Z,82.95
2023-04-21T04:32:34.647Z,82.32
2023-04-21T04:35:01.194Z,82.06
2023-04-21T04:37:28.059Z,82.59
2023-04-21T04:39:54.527Z,82.28
2023-04-21T04:42:20.869Z,82.22
2023-04-21T04:44:47.487Z,82.18
2023-04-21T04:47:14.010Z,82.80
2023-04-21T04:49:40.480Z,82.42
2023-04-21T04:52:06.973Z,82.45
2023-04-21T04:54:33.429Z,82.48
2023-04-21T04:56:59.875Z,82.13
2023-04-21T04:59:27.095Z,82.46
2023-04-21T05:01:54.805Z,82.71
2023-04-21T05:04:21.867Z,82.76
2023-04-21T05:06:48.595Z,82.82
2023-04-21T05:09:16.162Z,82.90
2023-04-21T05:11:42.520Z,82.82
2023-04-21T05:14:08.955Z,82.76
2023-04-21T05:16:35.487Z,83.23
2023-04-21T05:19:02.551Z,83.03
2023-04-21T05:21:29.163Z,82.28
2023-04-21T05:23:56.514Z,81.60
2023-04-21T05:26:23.494Z,82.16
2023-04-21T05:28:50.139Z,82.69
2023-04-21T05:31:16.669Z,82.38
2023-04-21T05:33:43.145Z,82.25
2023-04-21T05:36:10.299Z,82.13
2023-04-21T05:38:37.911Z,81.76
2023-04-21T05:41:04.839Z,82.29
2023-04-21T05:43:34.731Z,81.50
2023-04-21T05:46:01.954Z,81.60
2023-04-21T05:48:31.329Z,81.79
2023-04-21T05:50:57.658Z,81.95
2023-04-21T05:53:24.613Z,81.87
2023-04-21T05:55:50.934Z,81.73
2023-04-21T05:58:17.378Z,82.09
2023-04-21T06:00:43.799Z,82.32
2023-04-21T06:03:10.462Z,82.34
2023-04-21T06:05:37.129Z,81.88
2023-04-21T06:08:03.671Z,82.13
2023-04-21T06:10:30.853Z,81.92
2023-04-21T06:12:57.233Z,81.88
2023-04-21T06:15:23.618Z,81.82
2023-04-21T06:17:55.109Z,81.77
2023-04-21T06:20:21.700Z,82.35
2023-04-21T06:22:48.168Z,81.70
2023-04-21T06:25:16.878Z,82.05
2023-04-21T06:27:45.446Z,81.57
2023-04-21T06:30:12.460Z,81.67
2023-04-21T06:32:38.910Z,82.11
2023-04-21T06:35:05.829Z,82.05
2023-04-21T06:37:32.198Z,82.35
2023-04-21T06:39:58.570Z,82.27
2023-04-21T06:42:24.927Z,82.36
2023-04-21T06:44:51.246Z,82.02
2023-04-21T06:47:17.742Z,82.46
2023-04-21T06:49:44.237Z,82.09
2023-04-21T06:52:11.491Z,82.66
2023-04-21T06:54:38.288Z,82.36
2023-04-21T06:57:04.712Z,82.60
2023-04-21T06:59:31.192Z,82.57
2023-04-21T07:01:57.551Z,82.83
2023-04-21T07:04:24.015Z,82.36
2023-04-21T07:06:50.490Z,82.53
2023-04-21T07:09:17.144Z,81.36
2023-04-21T07:11:43.618Z,81.73
2023-04-21T07:14:10.909Z,82.50
2023-04-21T07:16:37.325Z,80.32
2023-04-21T07:19:03.822Z,80.18
2023-04-21T07:21:31.913Z,80.16
2023-04-21T07:23:58.792Z,80.52
2023-04-21T07:26:25.233Z,80.63
2023-04-21T07:28:52.726Z,79.69
2023-04-21T07:31:19.199Z,80.55
2023-04-21T07:33:45.839Z,80.10
2023-04-21T07:36:12.389Z,80.33
2023-04-21T07:38:43.050Z,78.79
2023-04-21T07:41:13.373Z,78.76
2023-04-21T07:43:40.414Z,77.93
2023-04-21T07:46:07.418Z,78.23
2023-04-21T07:48:33.899Z,78.14
2023-04-21T07:51:03.319Z,77.22
2023-04-21T07:53:30.547Z,78.12
2023-04-21T07:55:56.959Z,78.92
2023-04-21T07:58:23.364Z,78.00
2023-04-21T08:00:49.950Z,79.03
2023-04-21T08:03:16.437Z,77.67
2023-04-21T08:05:43.250Z,77.65
2023-04-21T08:08:09.744Z,78.95
2023-04-21T08:10:36.236Z,78.77
2023-04-21T08:13:06.158Z,76.84
2023-04-21T08:15:34.538Z,77.67
2023-04-21T08:18:01.415Z,77.60
2023-04-21T08:20:27.888Z,76.10
2023-04-21T08:22:54.387Z,75.04
2023-04-21T08:25:20.923Z,76.82
2023-04-21T08:27:47.443Z,74.93
2023-04-21T08:30:14.310Z,75.96
2023-04-21T08:32:40.752Z,75.18
2023-04-21T08:35:07.479Z,76.49
2023-04-21T08:37:36.740Z,75.48
2023-04-21T08:40:04.751Z,75.13
2023-04-21T08:42:31.332Z,77.12
2023-04-21T08:44:57.750Z,73.69
2023-04-21T08:47:24.341Z,73.78
2023-04-21T08:49:51.824Z,73.65
2023-04-21T08:52:18.251Z,71.89
2023-04-21T08:54:44.690Z,70.88
2023-04-21T08:59:41.369Z,72.29
2023-04-21T09:02:09.687Z,72.44
2023-04-21T09:04:43.749Z,71.26
2023-04-21T09:07:10.856Z,71.53
2023-04-21T09:09:57.593Z,70.30
2023-04-21T09:12:24.330Z,69.92
2023-04-21T09:14:51.331Z,67.60
2023-04-21T09:17:18.920Z,70.46
2023-04-21T09:19:45.393Z,66.91
2023-04-21T09:22:18.716Z,67.06
2023-04-21T09:25:02.356Z,68.65
2023-04-21T09:27:28.941Z,67.10
2023-04-21T09:29:55.477Z,67.96
2023-04-21T09:32:21.957Z,65.23
2023-04-21T09:34:49.411Z,66.30
2023-04-21T09:37:18.184Z,66.57
2023-04-21T09:39:57.348Z,63.97
2023-04-21T09:42:32.002Z,65.78
2023-04-21T09:45:14.130Z,67.17
2023-04-21T09:47:51.271Z,65.27
2023-04-21T09:50:39.239Z,65.61
2023-04-21T09:53:10.178Z,64.68
2023-04-21T09:55:36.810Z,62.04
2023-04-21T09:58:06.889Z,63.37
2023-04-21T10:00:39.112Z,63.49
2023-04-21T10:03:10.563Z,61.55
2023-04-21T10:05:42.802Z,61.57
2023-04-21T10:08:11.718Z,61.14
2023-04-21T10:10:39.519Z,59.78
2023-04-21T10:13:06.133Z,60.17
2023-04-21T10:15:40.088Z,58.17
2023-04-21T10:18:22.994Z,60.25
2023-04-21T10:21:03.323Z,58.93
2023-04-21T10:23:46.365Z,58.03
2023-04-21T10:26:24.011Z,57.28
2023-04-21T10:28:56.248Z,55.63
2023-04-21T10:31:32.586Z,55.49
2023-04-21T10:34:08.179Z,54.25
2023-04-21T10:36:52.946Z,54.40
2023-04-21T10:39:37.001Z,53.59
2023-04-21T10:42:12.500Z,53.70
2023-04-21T10:45:06.420Z,53.35
2023-04-21T10:47:48.989Z,51.33
2023-04-21T10:50:29.469Z,45.42
2023-04-21T10:53:12.511Z,40.68
2023-04-21T10:55:39.635Z,39.17
2023-04-21T10:58:11.256Z,39.89
2023-04-21T11:00:38.716Z,39.65
2023-04-21T11:03:07.294Z,39.13
2023-04-21T11:05:38.933Z,36.41
2023-04-21T11:08:13.949Z,34.66
2023-04-21T11:10:48.857Z,35.44
2023-04-21T11:13:15.526Z,34.76
2023-04-21T11:15:41.932Z,33.72
2023-04-21T11:18:09.648Z,35.25
2023-04-21T11:20:41.507Z,39.26
2023-04-21T11:23:07.896Z,38.91
2023-04-21T11:25:34.390Z,39.10
2023-04-21T11:28:00.925Z,39.99
2023-04-21T11:30:34.853Z,38.20
2023-04-21T11:33:01.705Z,36.92
2023-04-21T11:35:28.279Z,37.20
2023-04-21T11:37:55.571Z,38.71
2023-04-21T11:40:22.036Z,40.00
2023-04-21T11:42:48.584Z,36.90
2023-04-21T11:45:21.911Z,36.29
2023-04-21T11:47:49.083Z,36.84
2023-04-21T11:50:32.116Z,37.22
2023-04-21T11:52:58.593Z,36.85
2023-04-21T11:55:25.005Z,35.16
2023-04-21T11:57:51.512Z,34.57
2023-04-21T12:00:18.609Z,35.84
2023-04-21T12:02:55.709Z,35.68
2023-04-21T12:05:22.654Z,36.04
2023-04-21T12:07:49.753Z,34.94
2023-04-21T12:10:21.010Z,34.30
2023-04-21T12:12:47.993Z,34.83
2023-04-21T12:15:20.381Z,35.78
2023-04-21T12:17:49.154Z,36.07
2023-04-21T12:20:17.462Z,35.92
2023-04-21T12:22:44.202Z,35.93
2023-04-21T12:25:10.572Z,37.28
2023-04-21T12:27:37.033Z,38.26
2023-04-21T12:30:04.013Z,38.54
2023-04-21T12:32:30.791Z,39.30
2023-04-21T12:34:57.237Z,37.95
2023-04-21T12:37:23.600Z,37.30
2023-04-21T12:39:49.997Z,35.91
2023-04-21T12:42:16.483Z,35.76
2023-04-21T12:44:42.862Z,35.53
2023-04-21T12:47:09.488Z,36.17
2023-04-21T12:49:35.812Z,35.96
2023-04-21T12:52:05.209Z,36.74
2023-04-21T12:54:31.597Z,36.24
2023-04-21T12:56:58.110Z,37.09
2023-04-21T12:59:24.510Z,37.11
2023-04-21T13:01:51.091Z,36.29
2023-04-21T13:04:17.945Z,37.30
2023-04-21T13:06:44.516Z,36.96
2023-04-21T13:09:11.432Z,35.44
2023-04-21T13:11:37.905Z,34.95
2023-04-21T13:14:04.365Z,34.36
2023-04-21T13:16:31.295Z,33.60
2023-04-21T13:18:57.916Z,35.18
2023-04-21T13:21:24.353Z,35.73
2023-04-21T13:23:50.882Z,35.04
2023-04-21T13:26:18.158Z,33.46
2023-04-21T13:28:44.607Z,35.41
2023-04-21T13:31:11.083Z,34.71
2023-04-21T13:33:37.741Z,35.74
2023-04-21T13:36:04.428Z,35.04
2023-04-21T13:38:30.886Z,35.97
2023-04-21T13:40:57.480Z,35.11
2023-04-21T13:43:24.345Z,34.70
2023-04-21T13:45:52.253Z,32.36
2023-04-21T13:48:23.498Z,32.91
2023-04-21T13:50:51.012Z,34.01
2023-04-21T13:53:19.292Z,32.71
2023-04-21T13:55:47.438Z,32.99
2023-04-21T13:58:15.683Z,33.57
2023-04-21T14:00:42.107Z,33.05
2023-04-21T14:03:09.390Z,32.59
2023-04-21T14:05:36.230Z,31.94
2023-04-21T14:08:02.763Z,32.53
2023-04-21T14:10:29.177Z,32.48
2023-04-21T14:12:55.597Z,33.44
2023-04-21T14:15:22.000Z,32.54
2023-04-21T14:17:48.839Z,33.66
2023-04-21T14:20:15.320Z,34.50
2023-04-21T14:22:41.686Z,35.17
2023-04-21T14:25:08.586Z,35.71
2023-04-21T14:27:35.196Z,36.21
2023-04-21T14:30:02.283Z,36.50
2023-04-21T14:32:28.858Z,36.10
2023-04-21T14:34:58.345Z,36.13
2023-04-21T14:37:25.751Z,36.78
2023-04-21T14:39:52.164Z,37.42
2023-04-21T14:42:18.999Z,37.63
2023-04-21T14:44:45.499Z,36.65
2023-04-21T14:47:13.217Z,35.80
2023-04-21T14:49:39.814Z,35.76
2023-04-21T14:52:06.893Z,34.41
2023-04-21T14:54:33.481Z,35.89
2023-04-21T14:57:17.551Z,35.48
2023-04-21T14:59:46.633Z,36.15
2023-04-21T15:02:14.072Z,36.55
2023-04-21T15:04:40.956Z,37.54
2023-04-21T15:07:07.490Z,37.54
2023-04-21T15:09:35.577Z,39.47
2023-04-21T15:12:02.438Z,37.66
2023-04-21T15:14:28.973Z,37.77
2023-04-21T15:16:55.485Z,36.77
2023-04-21T15:19:24.003Z,37.46
2023-04-21T15:21:51.877Z,37.53
2023-04-21T15:24:18.263Z,37.83
2023-04-21T15:26:44.674Z,37.94
2023-04-21T15:29:11.294Z,38.99
2023-04-21T15:31:37.904Z,38.80
2023-04-21T15:34:04.366Z,38.36
2023-04-21T15:36:31.881Z,38.77
2023-04-21T15:38:58.366Z,39.37
2023-04-21T15:41:26.239Z,39.14
2023-04-21T15:43:53.774Z,39.73
2023-04-21T15:46:20.233Z,39.08
2023-04-21T15:48:46.997Z,39.60
2023-04-21T15:51:13.393Z,38.90
2023-04-21T15:53:47.182Z,40.45
2023-04-21T15:56:15.066Z,40.73
2023-04-21T15:58:41.580Z,41.84
2023-04-21T16:01:08.265Z,41.47
2023-04-21T16:03:35.222Z,42.03
2023-04-21T16:06:02.017Z,42.38
2023-04-21T16:08:28.762Z,42.94
2023-04-21T16:10:55.334Z,48.62
2023-04-21T16:13:21.720Z,65.71
2023-04-21T16:15:48.210Z,65.65
2023-04-21T16:18:14.695Z,73.83
2023-04-21T16:20:42.646Z,71.37
2023-04-21T16:23:09.419Z,74.57
2023-04-21T16:25:35.928Z,77.07
2023-04-21T16:28:02.468Z,85.22
2023-04-21T16:30:29.019Z,82.77
2023-04-21T16:32:55.389Z,81.04
2023-04-21T16:35:21.935Z,78.60
2023-04-21T16:37:48.405Z,76.81
2023-04-21T16:40:14.826Z,74.60
2023-04-21T16:42:41.424Z,76.13
2023-04-21T16:45:08.315Z,78.11
2023-04-21T16:47:41.366Z,78.87
2023-04-21T16:50:08.908Z,75.61
2023-04-21T16:52:35.469Z,73.38
2023-04-21T16:55:01.908Z,76.56
2023-04-21T16:57:29.686Z,74.31
2023-04-21T16:59:56.222Z,76.91
2023-04-21T17:02:22.808Z,75.44
2023-04-21T17:04:49.396Z,73.76
2023-04-21T17:07:16.046Z,73.76
2023-04-21T17:09:42.423Z,74.52
2023-04-21T17:12:09.427Z,72.73
2023-04-21T17:14:36.151Z,70.94
2023-04-21T17:17:02.811Z,73.18
2023-04-21T17:19:29.284Z,70.54
2023-04-21T17:21:55.830Z,72.50
2023-04-21T17:24:22.281Z,76.15
2023-04-21T17:26:48.731Z,78.27
2023-04-21T17:29:15.202Z,77.24
2023-04-21T17:31:41.566Z,75.25
2023-04-21T17:34:08.093Z,74.34
2023-04-21T17:36:34.554Z,72.44
2023-04-21T17:39:00.963Z,74.78
2023-04-21T17:41:27.745Z,74.93
2023-04-21T17:43:56.970Z,74.78
2023-04-21T17:46:25.433Z,74.94
2023-04-21T17:48:52.267Z,76.58
2023-04-21T17:51:19.317Z,76.13
2023-04-21T17:53:49.043Z,76.68
2023-04-21T17:56:15.773Z,76.70
2023-04-21T17:58:42.337Z,74.97
2023-04-21T18:01:08.725Z,73.45
2023-04-21T18:03:41.009Z,74.81
2023-04-21T18:06:09.816Z,76.11
2023-04-21T18:08:37.067Z,76.14
2023-04-21T18:11:03.478Z,75.19
2023-04-21T18:13:29.881Z,76.63
2023-04-21T18:15:56.345Z,75.34
2023-04-21T18:18:22.715Z,72.67
2023-04-21T18:20:49.095Z,72.33
2023-04-21T18:23:15.596Z,75.10
2023-04-21T18:25:42.915Z,74.82
2023-04-21T18:28:11.036Z,75.71
2023-04-21T18:30:37.591Z,76.86
2023-04-21T18:33:04.178Z,76.66
2023-04-21T18:35:33.004Z,74.13
2023-04-21T18:37:59.570Z,74.74
2023-04-21T18:40:26.033Z,71.10
2023-04-21T18:42:52.549Z,69.81
2023-04-21T18:45:18.900Z,69.32
2023-04-21T18:47:46.075Z,68.63
2023-04-21T18:50:12.511Z,67.70
2023-04-21T18:52:39.177Z,62.84
2023-04-21T18:55:06.027Z,61.49
2023-04-21T18:57:32.390Z,57.73
2023-04-21T19:00:00.201Z,59.35
2023-04-21T19:02:28.167Z,61.21
2023-04-21T19:04:54.808Z,61.83
2023-04-21T19:07:21.933Z,63.94
2023-04-21T19:09:48.296Z,66.25
2023-04-21T19:12:14.686Z,67.87
2023-04-21T19:14:47.166Z,68.93
2023-04-21T19:17:14.984Z,69.19
2023-04-21T19:19:41.751Z,69.70
2023-04-21T19:22:08.162Z,67.53
2023-04-21T19:24:35.269Z,68.31
2023-04-21T19:27:02.240Z,67.53
2023-04-21T19:29:29.029Z,67.66
2023-04-21T19:31:55.513Z,68.13
2023-04-21T19:34:22.154Z,68.68
2023-04-21T19:36:48.889Z,68.44
2023-04-21T19:39:15.341Z,68.33
2023-04-21T19:41:41.698Z,68.08
2023-04-21T19:44:08.157Z,68.41
2023-04-21T19:46:34.770Z,68.91
2023-04-21T19:49:01.271Z,68.84
2023-04-21T19:51:27.844Z,69.08
2023-04-21T19:54:10.156Z,68.77
2023-04-21T19:56:38.187Z,69.28
2023-04-21T19:59:05.436Z,68.16
2023-04-21T20:01:32.717Z,67.86
2023-04-21T20:03:59.861Z,69.06
2023-04-21T20:06:27.142Z,70.95
2023-04-21T20:08:54.016Z,70.55
2023-04-21T20:11:21.033Z,70.18
2023-04-21T20:13:47.765Z,69.38
2023-04-21T20:16:14.499Z,68.34
2023-04-21T20:18:40.865Z,69.42
2023-04-21T20:21:07.247Z,69.85
2023-04-21T20:23:33.675Z,70.09
2023-04-21T20:26:00.266Z,68.88
2023-04-21T20:28:27.717Z,68.01
2023-04-21T20:30:56.171Z,69.92
2023-04-21T20:33:22.725Z,69.55
2023-04-21T20:35:49.653Z,69.85
2023-04-21T20:38:16.365Z,71.05
2023-04-21T20:40:42.948Z,70.82
2023-04-21T20:43:10.273Z,71.13
2023-04-21T20:45:37.576Z,70.24
2023-04-21T20:48:05.526Z,70.19
2023-04-21T20:50:32.036Z,70.19
2023-04-21T20:52:58.362Z,72.23
2023-04-21T20:55:25.030Z,72.55
2023-04-21T20:57:51.402Z,72.24
2023-04-21T21:00:17.976Z,71.33
2023-04-21T21:02:44.700Z,70.72
2023-04-21T21:05:11.327Z,71.32
2023-04-21T21:07:37.842Z,70.11
2023-04-21T21:10:05.083Z,70.51
2023-04-21T21:12:31.477Z,70.90
2023-04-21T21:14:57.828Z,70.01
2023-04-21T21:17:24.269Z,70.69
2023-04-21T21:19:50.711Z,70.28
2023-04-21T21:22:17.084Z,70.55
2023-04-21T21:24:43.479Z,71.18
2023-04-21T21:27:09.963Z,71.00
2023-04-21T21:29:36.572Z,70.72
2023-04-21T21:32:03.275Z,71.34
2023-04-21T21:34:29.658Z,69.91
2023-04-21T21:36:56.103Z,70.55
2023-04-21T21:39:22.522Z,73.00
2023-04-21T21:41:48.867Z,71.01
2023-04-21T21:44:15.478Z,72.57
2023-04-21T21:46:42.450Z,73.98
2023-04-21T21:49:08.957Z,75.85
2023-04-21T21:51:35.365Z,75.35
2023-04-21T21:54:01.692Z,74.30
2023-04-21T21:56:28.046Z,73.08
2023-04-21T21:58:54.467Z,72.47
2023-04-21T22:01:20.995Z,71.92
2023-04-21T22:03:47.642Z,70.79
2023-04-21T22:06:16.261Z,71.90
2023-04-21T22:08:43.486Z,72.31
2023-04-21T22:11:09.938Z,72.62
2023-04-21T22:13:36.308Z,71.79
2023-04-21T22:16:02.684Z,71.86
2023-04-21T22:18:30.028Z,71.44
2023-04-21T22:20:57.911Z,70.90
2023-04-21T22:23:25.290Z,71.85
2023-04-21T22:25:51.762Z,73.25
2023-04-21T22:28:18.156Z,74.91
2023-04-21T22:30:44.594Z,73.42
2023-04-21T22:33:11.050Z,73.38
2023-04-21T22:35:37.487Z,71.86
2023-04-21T22:38:03.828Z,73.27
2023-04-21T22:40:30.245Z,73.30
2023-04-21T22:42:56.785Z,73.47
2023-04-21T22:45:23.184Z,72.99
2023-04-21T22:47:49.553Z,73.68
2023-04-21T22:50:15.960Z,76.69
2023-04-21T22:52:42.401Z,78.34
2023-04-21T22:55:09.256Z,77.40
2023-04-21T22:57:38.977Z,75.04
2023-04-21T23:00:07.941Z,74.14
2023-04-21T23:02:34.501Z,74.35
2023-04-21T23:05:01.158Z,75.76
2023-04-21T23:07:27.587Z,75.78
2023-04-21T23:09:53.931Z,73.73
2023-04-21T23:12:20.409Z,74.46
2023-04-21T23:14:48.154Z,73.70
2023-04-21T23:17:14.520Z,73.70
2023-04-21T23:19:41.070Z,74.26
2023-04-21T23:22:07.676Z,72.37
2023-04-21T23:24:34.303Z,73.10
2023-04-21T23:27:01.171Z,74.22
2023-04-21T23:29:27.833Z,74.39
2023-04-21T23:31:54.643Z,73.75
2023-04-21T23:34:21.113Z,71.62
2023-04-21T23:36:47.412Z,72.08
2023-04-21T23:39:13.813Z,73.39
2023-04-21T23:41:40.415Z,73.47
2023-04-21T23:44:06.772Z,72.75
2023-04-21T23:46:33.270Z,72.75
2023-04-21T23:48:59.771Z,72.87
2023-04-21T23:51:27.053Z,72.87
2023-04-21T23:53:53.569Z,72.45
2023-04-21T23:56:20.700Z,71.82
2023-04-21T23:58:47.206Z,71.92
